TAF KISP
KISP 280522Z 2806/2906 27006KT P6SM BKN100 FM280800 26005KT P6SM BKN040 TEMPO 2809/2813 6SM -SHSN BKN015 BKN035 FM281400 24006KT P6SM SCT015 BKN035 FM281800 VRB04KT P6SM BKN040=
METAR KISP
WC KISP
WS KISP
WV KISP